Time;durP1;ratioP1;P1;durP2;ratioP2;P2;SDS_P1;SDS_P2;PMS_P1;PMS_P2;Temp;Humidity;BMP_temperature;BMP_pressure;BME280_temperature;BME280_humidity;BME280_pressure;Samples;Min_cycle;Max_cycle;Signal;HPM_P1;HPM_P2
2022/09/16 00:00:46;;;;;;;3.50;1.20;;;;;;;11.57;88.30;99989.16;107844;1278;71131;-80
2022/09/16 00:03:15;;;;;;;3.20;0.90;;;;;;;11.56;88.55;99991.19;107915;1277;73751;-80
2022/09/16 00:05:48;;;;;;;4.40;0.90;;;;;;;11.56;88.68;99989.00;108230;1277;61997;-81
2022/09/16 00:08:16;;;;;;;2.80;0.70;;;;;;;11.57;88.43;99994.89;107756;1279;61721;-80
2022/09/16 00:10:43;;;;;;;5.60;1.30;;;;;;;11.54;88.57;99992.01;107561;1278;74704;-82
2022/09/16 00:13:13;;;;;;;4.50;0.90;;;;;;;11.53;88.49;99987.27;107850;1278;72739;-80
2022/09/16 00:15:45;;;;;;;4.20;1.00;;;;;;;11.52;88.56;99994.30;107914;1277;74062;-81
2022/09/16 00:18:12;;;;;;;3.00;1.00;;;;;;;11.51;88.63;99995.07;107670;1277;61995;-81
2022/09/16 00:20:46;;;;;;;3.30;0.90;;;;;;;11.50;88.63;99995.39;107953;1277;59524;-81
2022/09/16 00:23:14;;;;;;;2.50;0.70;;;;;;;11.49;88.63;99999.76;107956;1277;74988;-81
2022/09/16 00:25:40;;;;;;;3.60;1.00;;;;;;;11.48;88.77;99998.12;107816;1277;72578;-80
2022/09/16 00:28:08;;;;;;;4.50;1.00;;;;;;;11.49;88.65;99994.20;107809;1276;73748;-81
2022/09/16 00:30:35;;;;;;;4.30;1.00;;;;;;;11.47;88.61;99996.80;107932;1277;63464;-81
2022/09/16 00:33:03;;;;;;;6.70;0.90;;;;;;;11.48;88.61;99993.05;107837;1277;60311;-81
2022/09/16 00:35:31;;;;;;;3.40;0.70;;;;;;;11.47;88.56;99992.92;107948;1277;73815;-81
2022/09/16 00:37:58;;;;;;;3.90;0.70;;;;;;;11.47;88.38;99988.76;107931;1277;72582;-81
2022/09/16 00:40:25;;;;;;;3.50;0.80;;;;;;;11.45;88.42;99996.23;107899;1277;74128;-81
2022/09/16 00:42:52;;;;;;;3.80;0.90;;;;;;;11.42;88.33;99991.44;108005;1277;63201;-81
2022/09/16 00:45:24;;;;;;;1.80;0.70;;;;;;;11.40;88.19;99992.52;107971;1277;60465;-81
2022/09/16 00:47:54;;;;;;;4.70;0.90;;;;;;;11.38;88.20;99987.90;108148;1277;75052;-80
2022/09/16 00:50:35;;;;;;;2.40;0.60;;;;;;;11.37;88.34;99986.80;108100;1277;70310;-81
2022/09/16 00:53:02;;;;;;;4.10;0.70;;;;;;;11.36;88.42;99987.31;107960;1277;72824;-80
2022/09/16 00:55:32;;;;;;;2.40;0.60;;;;;;;11.36;88.36;99989.96;107961;1277;61960;-81
2022/09/16 00:58:08;;;;;;;4.50;0.70;;;;;;;11.36;88.41;99994.55;107934;1277;60062;-81
2022/09/16 01:00:37;;;;;;;3.10;0.70;;;;;;;11.35;88.23;99995.12;107921;1277;73735;-81
2022/09/16 01:03:04;;;;;;;5.40;0.90;;;;;;;11.36;88.17;99997.20;107731;1278;71340;-81
2022/09/16 01:05:32;;;;;;;4.40;0.90;;;;;;;11.36;88.20;99993.98;107938;1277;74039;-80
2022/09/16 01:08:00;;;;;;;3.20;0.60;;;;;;;11.36;88.29;99993.09;107917;1277;63215;-81
2022/09/16 01:10:27;;;;;;;3.60;0.80;;;;;;;11.36;88.19;99989.41;108184;1277;60691;-81
2022/09/16 01:13:01;;;;;;;5.20;0.90;;;;;;;11.36;88.20;99991.13;108143;1276;75431;-81
2022/09/16 01:16:06;;;;;;;3.60;0.80;;;;;;;11.36;88.25;99990.14;107955;1277;72876;-81
2022/09/16 01:18:38;;;;;;;4.20;0.90;;;;;;;11.38;88.32;99991.49;108037;1277;73072;-81
2022/09/16 01:21:17;;;;;;;3.80;0.70;;;;;;;11.39;88.13;99987.94;107899;1276;62131;-80
2022/09/16 01:24:22;;;;;;;4.40;1.10;;;;;;;11.40;88.13;99989.38;108005;1277;61592;-81
2022/09/16 01:27:31;;;;;;;3.30;0.90;;;;;;;11.43;88.16;99995.52;107820;1277;74932;-80
2022/09/16 01:30:28;;;;;;;5.20;0.90;;;;;;;11.47;88.25;99994.80;107974;1277;72581;-81
2022/09/16 01:33:00;;;;;;;4.20;1.00;;;;;;;11.50;88.06;99996.91;108034;1277;74089;-81
2022/09/16 01:35:45;;;;;;;3.10;0.70;;;;;;;11.54;87.89;99999.98;108218;1276;61986;-80
2022/09/16 01:38:42;;;;;;;5.30;0.90;;;;;;;11.58;87.75;99998.06;108169;1277;61247;-80
2022/09/16 01:41:24;;;;;;;3.40;0.80;;;;;;;11.62;87.56;99999.36;107728;1277;75301;-80
2022/09/16 01:44:02;;;;;;;2.90;1.00;;;;;;;11.66;87.46;100000.47;108179;1277;70636;-81
2022/09/16 01:46:42;;;;;;;4.80;0.90;;;;;;;11.67;87.48;99999.13;108194;1278;74116;-80
2022/09/16 01:49:24;;;;;;;3.90;0.90;;;;;;;11.68;87.29;99998.76;108212;1277;62335;-80
2022/09/16 01:52:19;;;;;;;3.50;1.20;;;;;;;11.68;87.18;99992.79;107942;1277;63376;-80
2022/09/16 01:54:55;;;;;;;3.40;1.00;;;;;;;11.69;87.14;99996.36;108022;1277;74757;-80
2022/09/16 01:57:45;;;;;;;4.70;0.90;;;;;;;11.72;86.88;99994.25;108062;1277;71366;-81
2022/09/16 02:00:13;;;;;;;3.70;0.80;;;;;;;11.74;86.67;99994.61;108165;1277;74419;-80
2022/09/16 02:02:55;;;;;;;4.10;0.70;;;;;;;11.77;86.37;99997.19;107950;1277;63352;-81
2022/09/16 02:05:32;;;;;;;4.60;1.10;;;;;;;11.81;86.28;99995.45;108184;1276;60422;-80
2022/09/16 02:08:04;;;;;;;3.60;0.90;;;;;;;11.82;86.15;99990.88;107991;1277;76275;-81
2022/09/16 02:10:40;;;;;;;3.30;0.70;;;;;;;11.83;86.12;99986.67;108178;1277;71460;-81
2022/09/16 02:13:18;;;;;;;4.20;0.70;;;;;;;11.86;85.79;99990.61;107870;1276;73212;-81
2022/09/16 02:15:48;;;;;;;6.40;1.10;;;;;;;11.83;85.91;99986.42;107929;1277;63167;-80
2022/09/16 02:18:21;;;;;;;5.40;1.00;;;;;;;11.84;85.77;99989.04;107500;1278;61494;-80
2022/09/16 02:20:51;;;;;;;3.80;0.90;;;;;;;11.84;85.85;99986.07;107956;1277;75068;-80
2022/09/16 02:23:26;;;;;;;2.70;0.60;;;;;;;11.83;85.70;99984.34;107971;1276;71546;-80
2022/09/16 02:25:54;;;;;;;3.80;1.10;;;;;;;11.82;85.79;99983.41;107952;1277;72844;-81
2022/09/16 02:28:29;;;;;;;3.60;1.00;;;;;;;11.83;85.56;99986.64;108129;1277;64126;-81
2022/09/16 02:31:00;;;;;;;4.30;1.00;;;;;;;11.81;85.76;99980.01;108118;1276;61132;-81
2022/09/16 02:33:34;;;;;;;4.90;0.90;;;;;;;11.83;85.82;99977.46;107868;1278;75562;-81
2022/09/16 02:36:05;;;;;;;4.00;1.00;;;;;;;11.83;85.81;99980.50;108214;1277;71606;-82
2022/09/16 02:38:39;;;;;;;3.20;0.70;;;;;;;11.83;85.55;99978.90;108051;1277;72703;-81
2022/09/16 02:41:13;;;;;;;3.50;0.80;;;;;;;11.85;85.63;99979.31;107642;1278;63023;-81
2022/09/16 02:43:44;;;;;;;3.70;0.90;;;;;;;11.88;85.71;99972.83;108099;1277;60556;-81
2022/09/16 02:46:29;;;;;;;4.50;0.80;;;;;;;11.91;85.61;99972.66;108151;1276;73703;-81
2022/09/16 02:49:18;;;;;;;3.20;0.80;;;;;;;11.92;85.37;99969.48;108159;1277;72351;-81
2022/09/16 02:51:58;;;;;;;3.20;0.60;;;;;;;11.91;85.24;99978.92;107982;1277;74106;-80
2022/09/16 02:54:48;;;;;;;2.30;0.70;;;;;;;11.89;85.39;99969.27;107962;1277;62017;-81
2022/09/16 02:57:15;;;;;;;5.10;0.90;;;;;;;11.91;85.36;99978.98;108137;1277;60467;-82
2022/09/16 02:59:42;;;;;;;5.40;0.70;;;;;;;11.91;85.26;99978.66;107973;1277;74673;-81
2022/09/16 03:02:09;;;;;;;6.30;1.00;;;;;;;11.93;85.08;99972.66;107925;1277;71425;-81
2022/09/16 03:04:36;;;;;;;4.10;0.70;;;;;;;11.94;85.15;99975.25;107958;1277;72788;-81
2022/09/16 03:07:06;;;;;;;1.80;0.70;;;;;;;11.93;85.32;99974.88;108217;1276;62288;-82
2022/09/16 03:09:36;;;;;;;3.10;0.80;;;;;;;11.92;85.31;99974.63;107856;1277;59513;-82
2022/09/16 03:12:31;;;;;;;4.30;1.00;;;;;;;11.90;85.15;99970.11;108103;1277;75024;-80
2022/09/16 03:15:05;;;;;;;4.30;0.80;;;;;;;11.88;85.43;99969.40;107674;1278;71809;-81
2022/09/16 03:17:39;;;;;;;3.50;0.70;;;;;;;11.87;85.43;99969.92;108190;1277;71714;-81
2022/09/16 03:20:19;;;;;;;3.20;0.60;;;;;;;11.87;85.74;99970.78;108102;1275;63241;-81
2022/09/16 03:23:03;;;;;;;4.30;0.90;;;;;;;11.90;85.47;99976.86;108149;1277;60732;-81
2022/09/16 03:25:57;;;;;;;4.10;0.70;;;;;;;11.91;85.58;99975.15;108178;1276;75838;-81
2022/09/16 03:28:26;;;;;;;3.20;0.80;;;;;;;11.89;85.66;99982.55;108155;1277;71238;-80
2022/09/16 03:31:04;;;;;;;3.30;0.70;;;;;;;11.90;85.76;99978.45;108041;1277;73824;-81
2022/09/16 03:33:59;;;;;;;3.30;0.80;;;;;;;11.90;85.73;99976.58;107668;1278;63579;-82
2022/09/16 03:36:32;;;;;;;2.80;1.00;;;;;;;11.88;86.01;99975.77;108158;1277;61319;-82
2022/09/16 03:39:00;;;;;;;3.10;0.70;;;;;;;11.86;86.05;99978.88;107821;1277;76170;-82
2022/09/16 03:41:29;;;;;;;3.00;0.70;;;;;;;11.83;86.21;99973.38;107881;1277;71152;-81
2022/09/16 03:43:58;;;;;;;2.60;0.60;;;;;;;11.83;86.14;99975.34;107858;1277;74013;-81
2022/09/16 03:46:30;;;;;;;4.70;0.90;;;;;;;11.79;86.35;99979.27;107827;1279;62231;-82
2022/09/16 03:48:57;;;;;;;4.80;0.70;;;;;;;11.77;86.43;99974.85;107937;1277;59504;-81
2022/09/16 03:51:24;;;;;;;4.50;0.90;;;;;;;11.73;86.68;99969.68;108152;1277;74455;-81
2022/09/16 03:53:52;;;;;;;3.00;0.70;;;;;;;11.70;86.82;99970.13;107840;1278;72684;-81
2022/09/16 03:56:21;;;;;;;4.00;0.90;;;;;;;11.68;86.82;99977.92;107943;1278;72846;-82
2022/09/16 03:58:48;;;;;;;5.50;1.00;;;;;;;11.63;87.00;99972.27;107869;1277;61059;-81
2022/09/16 04:01:16;;;;;;;3.20;0.70;;;;;;;11.64;87.20;99968.05;107974;1277;60537;-82
2022/09/16 04:03:43;;;;;;;3.40;0.80;;;;;;;11.64;87.00;99964.02;107926;1276;74733;-82
2022/09/16 04:06:10;;;;;;;2.90;0.70;;;;;;;11.65;87.03;99963.36;107981;1277;71712;-82
2022/09/16 04:08:38;;;;;;;2.20;0.70;;;;;;;11.64;87.15;99966.02;107713;1278;72813;-81
2022/09/16 04:11:08;;;;;;;3.00;0.70;;;;;;;11.64;87.12;99963.84;108222;1276;62873;-81
2022/09/16 04:13:35;;;;;;;5.10;1.00;;;;;;;11.65;87.12;99963.40;108126;1277;61317;-81
2022/09/16 04:16:04;;;;;;;3.30;0.90;;;;;;;11.65;86.97;99961.04;107870;1277;74752;-81
2022/09/16 04:18:33;;;;;;;3.80;0.80;;;;;;;11.67;87.08;99963.20;107570;1278;71459;-80
2022/09/16 04:21:02;;;;;;;3.90;0.80;;;;;;;11.68;86.76;99958.66;108006;1276;71780;-82
2022/09/16 04:23:31;;;;;;;4.40;1.00;;;;;;;11.72;86.76;99957.84;107989;1277;62652;-82
2022/09/16 04:25:59;;;;;;;3.50;0.80;;;;;;;11.71;86.68;99951.94;108001;1277;61554;-81
2022/09/16 04:28:29;;;;;;;5.40;0.90;;;;;;;11.74;86.70;99949.12;107967;1277;75654;-82
2022/09/16 04:31:19;;;;;;;2.10;0.70;;;;;;;11.73;86.41;99952.02;107818;1277;72606;-82
2022/09/16 04:33:46;;;;;;;3.80;0.90;;;;;;;11.76;86.26;99947.38;108193;1275;73029;-82
2022/09/16 04:36:15;;;;;;;4.20;1.00;;;;;;;11.76;86.37;99946.83;108209;1275;62013;-82
2022/09/16 04:38:43;;;;;;;5.30;1.30;;;;;;;11.79;86.26;99941.90;107907;1277;59215;-82
2022/09/16 04:41:21;;;;;;;3.30;0.80;;;;;;;11.79;86.16;99937.65;107810;1278;75455;-82
2022/09/16 04:43:57;;;;;;;5.40;1.30;;;;;;;11.79;86.17;99937.89;108217;1276;71269;-82
2022/09/16 04:46:25;;;;;;;4.10;1.10;;;;;;;11.79;85.97;99938.67;107854;1278;72705;-82
2022/09/16 04:48:54;;;;;;;3.00;0.70;;;;;;;11.79;85.92;99945.33;107999;1277;62269;-82
2022/09/16 04:51:21;;;;;;;4.50;0.90;;;;;;;11.79;85.81;99944.11;108002;1277;60609;-81
2022/09/16 04:53:48;;;;;;;3.30;0.90;;;;;;;11.80;85.57;99942.48;108229;1276;74633;-82
2022/09/16 04:56:18;;;;;;;2.50;0.70;;;;;;;11.81;85.57;99945.33;107995;1277;72131;-82
2022/09/16 04:58:46;;;;;;;4.20;0.80;;;;;;;11.79;85.50;99941.85;108251;1274;72082;-82
2022/09/16 05:01:19;;;;;;;3.90;1.00;;;;;;;11.78;85.38;99946.64;107901;1277;63172;-82
2022/09/16 05:03:48;;;;;;;3.70;0.90;;;;;;;11.78;85.32;99949.55;108047;1278;59927;-82
2022/09/16 05:06:17;;;;;;;3.00;0.80;;;;;;;11.77;85.09;99957.11;108059;1277;75520;-82
2022/09/16 05:08:47;;;;;;;2.90;0.80;;;;;;;11.77;84.81;99947.95;107726;1278;72620;-83
2022/09/16 05:11:17;;;;;;;3.50;0.80;;;;;;;11.78;85.06;99957.80;107720;1278;73938;-84
2022/09/16 05:13:44;;;;;;;4.60;1.00;;;;;;;11.79;84.91;99955.59;107958;1277;61596;-83
2022/09/16 05:16:16;;;;;;;4.10;1.30;;;;;;;11.79;85.30;99954.62;108048;1279;60479;-82
2022/09/16 05:18:45;;;;;;;3.20;1.00;;;;;;;11.80;85.57;99952.89;108031;1277;73987;-82
2022/09/16 05:21:14;;;;;;;3.50;1.30;;;;;;;11.79;86.13;99970.23;108023;1277;72854;-81
2022/09/16 05:23:41;;;;;;;2.70;1.30;;;;;;;11.79;86.42;99964.83;108011;1276;72924;-82
2022/09/16 05:26:14;;;;;;;4.30;1.30;;;;;;;11.81;86.26;99963.90;108042;1278;62324;-82
2022/09/16 05:28:42;;;;;;;4.40;1.20;;;;;;;11.82;86.60;99969.98;107992;1277;62592;-82
2022/09/16 05:31:18;;;;;;;4.30;1.60;;;;;;;11.82;86.44;99963.70;107749;1278;74877;-82
2022/09/16 05:34:07;;;;;;;2.70;1.30;;;;;;;11.82;86.67;99959.39;108153;1276;72357;-82
2022/09/16 05:36:36;;;;;;;5.00;1.40;;;;;;;11.80;86.75;99960.08;108050;1277;71868;-82
2022/09/16 05:39:03;;;;;;;5.90;1.60;;;;;;;11.84;86.89;99951.10;108029;1278;62608;-83
2022/09/16 05:41:52;;;;;;;3.80;1.50;;;;;;;11.86;86.70;99948.65;108041;1277;59117;-81
2022/09/16 05:44:19;;;;;;;4.50;1.70;;;;;;;11.85;86.54;99953.10;108196;1277;73905;-82
2022/09/16 05:46:46;;;;;;;5.70;1.60;;;;;;;11.88;86.59;99952.39;108303;1276;72585;-80
2022/09/16 05:49:12;;;;;;;5.70;1.70;;;;;;;11.90;86.42;99950.27;108115;1277;72820;-82
2022/09/16 05:51:40;;;;;;;4.10;1.30;;;;;;;11.88;86.17;99957.04;107970;1277;63788;-82
2022/09/16 05:54:07;;;;;;;2.60;1.20;;;;;;;11.89;86.21;99952.12;108191;1277;61856;-83
2022/09/16 05:56:34;;;;;;;3.10;1.20;;;;;;;11.89;86.53;99958.86;108209;1276;75451;-82
2022/09/16 05:59:02;;;;;;;4.40;1.40;;;;;;;11.89;86.33;99950.48;107931;1278;73095;-81
2022/09/16 06:01:32;;;;;;;6.20;1.30;;;;;;;11.94;86.02;99951.98;107900;1277;72782;-82
2022/09/16 06:04:04;;;;;;;5.60;1.70;;;;;;;12.00;86.08;99949.41;107978;1277;63982;-82
2022/09/16 06:06:58;;;;;;;3.40;1.40;;;;;;;12.00;85.92;99961.95;108035;1276;60718;-82
2022/09/16 06:09:25;;;;;;;2.80;1.20;;;;;;;12.01;85.62;99962.05;107794;1278;74189;-82
2022/09/16 06:11:53;;;;;;;4.70;1.40;;;;;;;11.98;85.34;99961.91;107792;1278;72694;-81
2022/09/16 06:14:28;;;;;;;2.50;1.20;;;;;;;11.98;85.54;99956.92;107844;1277;74996;-82
2022/09/16 06:16:55;;;;;;;5.40;1.40;;;;;;;11.94;85.36;99963.63;108121;1276;63127;-82
2022/09/16 06:19:22;;;;;;;4.30;1.30;;;;;;;11.95;85.05;99957.78;108228;1276;59469;-83
2022/09/16 06:21:49;;;;;;;3.70;1.20;;;;;;;11.98;85.02;99951.94;108156;1277;74445;-82
2022/09/16 06:24:18;;;;;;;4.30;1.10;;;;;;;12.04;84.64;99955.44;107975;1277;70589;-81
2022/09/16 06:26:46;;;;;;;3.70;1.10;;;;;;;12.09;84.56;99948.36;108002;1277;72220;-82
2022/09/16 06:29:14;;;;;;;4.20;1.10;;;;;;;12.18;84.35;99945.05;108041;1277;62060;-83
2022/09/16 06:31:41;;;;;;;4.30;1.20;;;;;;;12.23;84.10;99946.89;107935;1277;60305;-82
2022/09/16 06:34:13;;;;;;;3.80;1.10;;;;;;;12.29;83.66;99946.48;106932;1277;1670163;-83
2022/09/16 06:36:40;;;;;;;2.30;0.90;;;;;;;12.31;83.25;99950.77;108189;1276;72365;-81
2022/09/16 06:39:13;;;;;;;3.50;0.90;;;;;;;12.35;82.60;99958.47;108187;1277;72401;-83
2022/09/16 06:41:40;;;;;;;2.80;0.90;;;;;;;12.36;82.03;99963.67;107986;1276;63879;-82
2022/09/16 06:44:07;;;;;;;4.20;1.00;;;;;;;12.36;82.19;99959.55;108152;1277;61456;-83
2022/09/16 06:46:34;;;;;;;4.00;0.90;;;;;;;12.36;82.11;99956.84;108202;1276;74943;-83
2022/09/16 06:49:01;;;;;;;4.50;0.90;;;;;;;12.38;82.18;99955.79;107867;1277;71411;-83
2022/09/16 06:51:33;;;;;;;2.20;0.80;;;;;;;12.45;81.73;99954.25;108155;1277;73995;-82
2022/09/16 06:54:05;;;;;;;3.50;1.00;;;;;;;12.52;81.71;99948.48;107934;1277;63724;-83
2022/09/16 06:56:37;;;;;;;4.50;0.70;;;;;;;12.62;81.21;99950.48;107934;1277;61881;-84
2022/09/16 06:59:05;;;;;;;3.80;0.90;;;;;;;12.69;80.58;99953.45;107546;1277;74993;-83
2022/09/16 07:01:32;;;;;;;3.20;0.90;;;;;;;12.70;80.21;99947.72;108193;1276;72008;-81
2022/09/16 07:04:04;;;;;;;4.50;1.00;;;;;;;12.67;79.83;99944.38;108054;1277;72969;-82
2022/09/16 07:06:31;;;;;;;2.40;0.70;;;;;;;12.65;79.18;99941.84;107969;1278;61503;-82
2022/09/16 07:09:18;;;;;;;2.90;0.80;;;;;;;12.71;79.78;99946.41;108267;1278;62125;-82
2022/09/16 07:11:45;;;;;;;3.60;1.10;;;;;;;12.81;79.39;99948.20;108291;1277;74635;-80
2022/09/16 07:14:11;;;;;;;2.40;0.70;;;;;;;12.82;78.47;99960.11;108124;1277;71724;-81
2022/09/16 07:16:38;;;;;;;4.60;0.80;;;;;;;12.81;78.86;99947.61;108261;1277;72848;-82
2022/09/16 07:19:05;;;;;;;5.30;0.70;;;;;;;12.92;79.07;99943.55;108066;1277;63580;-82
2022/09/16 07:21:32;;;;;;;4.60;0.70;;;;;;;13.00;78.44;99954.17;108090;1278;61398;-83
2022/09/16 07:24:01;;;;;;;2.60;0.70;;;;;;;13.11;78.05;99959.22;107978;1277;74837;-83
2022/09/16 07:26:33;;;;;;;2.30;0.70;;;;;;;13.13;77.66;99949.67;108171;1277;71422;-83
2022/09/16 07:29:02;;;;;;;4.50;0.80;;;;;;;13.13;76.74;99963.47;108028;1277;74210;-81
2022/09/16 07:31:31;;;;;;;4.30;0.70;;;;;;;13.22;77.13;99956.50;108010;1278;61968;-82
2022/09/16 07:34:00;;;;;;;3.00;0.60;;;;;;;13.26;76.19;99956.48;107732;1278;61649;-82
2022/09/16 07:36:32;;;;;;;3.40;0.70;;;;;;;13.34;75.54;99954.70;107957;1277;75035;-82
2022/09/16 07:38:59;;;;;;;2.60;0.50;;;;;;;13.38;74.81;99956.00;107878;1277;71799;-83
2022/09/16 07:41:28;;;;;;;4.40;0.80;;;;;;;13.50;75.03;99957.64;107997;1277;73710;-82
2022/09/16 07:43:57;;;;;;;3.30;0.60;;;;;;;13.63;74.30;99956.86;108085;1278;62084;-80
2022/09/16 07:46:26;;;;;;;2.80;0.70;;;;;;;13.72;73.61;99954.56;108264;1277;60846;-80
2022/09/16 07:48:54;;;;;;;4.40;0.80;;;;;;;13.84;73.11;99959.13;107893;1278;75424;-82
2022/09/16 07:51:23;;;;;;;2.50;0.60;;;;;;;13.85;72.47;99964.25;108114;1277;70539;-81
2022/09/16 07:53:55;;;;;;;3.00;0.90;;;;;;;13.97;72.52;99953.64;108162;1277;74118;-82
2022/09/16 07:56:24;;;;;;;3.40;0.70;;;;;;;14.08;72.08;99956.39;108046;1277;61978;-82
2022/09/16 07:58:53;;;;;;;5.30;0.90;;;;;;;14.21;71.39;99954.08;107817;1277;60386;-82
2022/09/16 08:01:19;;;;;;;3.50;0.70;;;;;;;14.31;70.19;99962.01;108073;1277;76262;-81
2022/09/16 08:03:47;;;;;;;4.60;0.70;;;;;;;14.35;70.08;99956.39;107894;1278;71497;-83
2022/09/16 08:06:19;;;;;;;4.60;1.00;;;;;;;14.46;69.84;99959.66;107897;1277;74151;-81
2022/09/16 08:08:46;;;;;;;3.30;0.60;;;;;;;14.54;68.78;99959.56;107988;1277;61349;-82
2022/09/16 08:11:14;;;;;;;3.20;0.60;;;;;;;14.59;68.19;99964.23;108057;1277;61895;-82
2022/09/16 08:13:42;;;;;;;5.00;0.70;;;;;;;14.68;67.80;99961.84;108031;1277;75115;-82
2022/09/16 08:16:18;;;;;;;4.80;0.80;;;;;;;14.73;67.23;99955.67;108185;1276;71498;-81
2022/09/16 08:18:50;;;;;;;4.00;0.70;;;;;;;14.77;66.93;99961.15;108029;1277;74270;-82
2022/09/16 08:21:22;;;;;;;3.60;0.70;;;;;;;14.81;66.82;99960.03;108236;1277;63587;-80
2022/09/16 08:23:49;;;;;;;4.40;0.70;;;;;;;14.91;66.17;99965.36;108114;1277;60281;-81
2022/09/16 08:26:17;;;;;;;3.20;0.60;;;;;;;15.08;65.68;99967.93;108100;1278;73718;-81
2022/09/16 08:28:45;;;;;;;3.80;0.70;;;;;;;15.09;65.30;99965.57;108094;1277;71032;-82
2022/09/16 08:31:32;;;;;;;2.70;0.70;;;;;;;15.07;65.01;99968.23;108248;1277;75518;-80
2022/09/16 08:33:59;;;;;;;4.60;0.80;;;;;;;15.05;64.09;99976.09;108041;1277;62001;-81
2022/09/16 08:36:26;;;;;;;4.60;0.80;;;;;;;14.90;64.55;99967.59;107684;1278;59824;-81
2022/09/16 08:38:55;;;;;;;3.50;0.70;;;;;;;14.97;65.02;99961.73;108253;1277;75192;-81
2022/09/16 08:41:30;;;;;;;4.60;0.70;;;;;;;15.09;65.52;99957.73;108183;1277;72901;-82
2022/09/16 08:44:25;;;;;;;5.70;1.00;;;;;;;15.28;65.21;99956.19;108058;1277;73460;-82
2022/09/16 08:47:01;;;;;;;4.20;1.00;;;;;;;15.39;64.09;99954.34;108235;1277;63624;-81
2022/09/16 08:49:45;;;;;;;4.20;0.80;;;;;;;15.43;62.93;99960.33;108020;1277;60831;-82
2022/09/16 08:52:28;;;;;;;4.10;0.70;;;;;;;15.48;62.19;99970.36;107704;1278;74680;-82
2022/09/16 08:55:13;;;;;;;4.20;0.80;;;;;;;15.54;61.81;99961.06;108025;1277;71486;-81
2022/09/16 08:57:51;;;;;;;5.80;1.00;;;;;;;15.59;61.22;99957.80;107841;1278;74336;-80
2022/09/16 09:00:19;;;;;;;3.30;0.80;;;;;;;15.70;61.20;99960.36;108173;1277;63297;-81
2022/09/16 09:02:55;;;;;;;4.40;0.80;;;;;;;15.87;60.91;99961.64;107887;1278;60679;-81
2022/09/16 09:05:33;;;;;;;4.00;0.70;;;;;;;16.02;59.81;99960.63;108175;1276;76577;-82
2022/09/16 09:08:40;;;;;;;4.20;0.80;;;;;;;16.06;59.58;99961.65;107980;1277;71231;-83
2022/09/16 09:11:28;;;;;;;3.10;0.80;;;;;;;16.11;58.81;99961.41;108025;1277;73600;-81
2022/09/16 09:14:22;;;;;;;6.10;0.90;;;;;;;16.24;57.30;99962.85;108011;1277;60653;-81
2022/09/16 09:17:02;;;;;;;6.00;0.90;;;;;;;16.41;55.90;99975.42;108243;1277;60812;-81
2022/09/16 09:20:09;;;;;;;3.60;0.90;;;;;;;16.48;55.44;99964.80;107941;1277;74653;-83
2022/09/16 09:22:53;;;;;;;6.80;1.30;;;;;;;16.51;55.63;99958.25;107905;1278;71299;-82
2022/09/16 09:25:43;;;;;;;3.70;0.90;;;;;;;16.53;55.73;99958.77;108184;1277;72671;-81
2022/09/16 09:28:31;;;;;;;6.60;0.90;;;;;;;16.43;55.64;99962.01;108028;1276;62078;-82
2022/09/16 09:31:14;;;;;;;5.50;1.00;;;;;;;16.24;55.56;99960.45;108325;1276;61652;-82
2022/09/16 09:34:04;;;;;;;5.80;1.10;;;;;;;16.08;54.44;99960.79;108469;1276;73704;-82
2022/09/16 09:36:52;;;;;;;5.50;1.00;;;;;;;16.12;54.24;99966.36;108197;1277;71471;-82
2022/09/16 09:39:27;;;;;;;4.80;1.00;;;;;;;16.09;54.28;99957.19;108144;1278;73011;-83
2022/09/16 09:42:01;;;;;;;3.20;0.80;;;;;;;16.04;54.46;99964.02;108100;1278;60337;-82
2022/09/16 09:44:45;;;;;;;4.40;0.80;;;;;;;15.93;54.98;99955.02;108086;1277;61605;-83
2022/09/16 09:47:31;;;;;;;5.10;0.80;;;;;;;15.82;55.43;99951.73;108026;1277;75753;-82
2022/09/16 09:50:12;;;;;;;4.00;0.70;;;;;;;15.95;54.93;99948.02;107918;1278;71318;-82
2022/09/16 09:52:56;;;;;;;4.20;0.80;;;;;;;15.98;54.58;99948.70;107955;1277;74772;-82
2022/09/16 09:55:26;;;;;;;4.80;0.90;;;;;;;15.89;56.15;99943.65;108031;1277;60396;-82
2022/09/16 09:58:30;;;;;;;4.60;1.10;;;;;;;15.68;57.54;99948.20;107738;1278;60363;-81
2022/09/16 10:00:57;;;;;;;5.80;0.90;;;;;;;15.63;55.47;99955.64;108191;1277;74901;-83
2022/09/16 10:03:28;;;;;;;4.50;1.00;;;;;;;15.82;55.09;99945.65;108039;1277;72624;-81
2022/09/16 10:05:55;;;;;;;3.90;0.80;;;;;;;16.12;54.59;99947.19;108070;1277;74512;-81
2022/09/16 10:08:50;;;;;;;5.90;1.30;;;;;;;16.25;54.12;99936.81;108014;1278;63217;-83
2022/09/16 10:11:22;;;;;;;6.80;1.10;;;;;;;16.56;54.34;99928.92;107993;1278;60319;-83
2022/09/16 10:13:54;;;;;;;4.60;0.90;;;;;;;16.57;52.55;99931.29;107978;1278;74653;-83
2022/09/16 10:16:25;;;;;;;5.80;0.90;;;;;;;16.41;52.08;99937.04;107831;1279;72869;-84
2022/09/16 10:19:24;;;;;;;3.90;1.00;;;;;;;16.34;52.58;99927.71;108038;1277;73166;-83
2022/09/16 10:21:54;;;;;;;4.00;0.70;;;;;;;16.27;52.21;99939.44;108249;1276;60428;-84
2022/09/16 10:24:36;;;;;;;5.00;1.10;;;;;;;16.28;51.91;99926.38;108110;1277;63007;-83
2022/09/16 10:27:22;;;;;;;3.50;0.80;;;;;;;16.38;51.68;99926.52;107994;1280;74637;-82
2022/09/16 10:30:12;;;;;;;3.70;0.80;;;;;;;16.38;51.47;99922.19;108210;1277;72349;-82
2022/09/16 10:32:54;;;;;;;7.80;0.90;;;;;;;16.53;51.43;99929.87;107888;1278;72718;-82
2022/09/16 10:35:26;;;;;;;3.00;0.70;;;;;;;16.77;50.33;99920.75;108050;1277;60421;-81
2022/09/16 10:37:58;;;;;;;5.30;1.00;;;;;;;16.73;50.25;99916.01;108197;1277;61681;-84
2022/09/16 10:40:25;;;;;;;5.70;1.00;;;;;;;16.77;50.12;99915.34;108198;1277;74647;-83
2022/09/16 10:43:01;;;;;;;6.10;0.90;;;;;;;16.88;49.25;99911.20;108039;1277;72764;-83
2022/09/16 10:45:35;;;;;;;4.10;0.80;;;;;;;16.92;48.54;99914.67;107982;1280;74253;-84
2022/09/16 10:48:11;;;;;;;3.70;0.90;;;;;;;16.97;48.61;99916.91;108173;1278;62118;-81
2022/09/16 10:50:38;;;;;;;5.60;0.90;;;;;;;17.08;47.87;99916.78;108310;1276;61948;-82
2022/09/16 10:53:22;;;;;;;4.90;0.80;;;;;;;16.95;47.10;99904.81;108124;1277;75010;-84
2022/09/16 10:56:01;;;;;;;9.20;1.00;;;;;;;16.92;47.93;99912.16;108191;1276;71583;-82
2022/09/16 10:58:31;;;;;;;4.90;1.10;;;;;;;16.84;48.19;99908.81;108218;1277;72797;-85
2022/09/16 11:01:18;;;;;;;4.40;0.90;;;;;;;16.65;48.16;99910.91;107948;1280;61005;-82
2022/09/16 11:04:05;;;;;;;5.00;1.00;;;;;;;16.60;48.55;99903.95;108074;1281;60346;-83
2022/09/16 11:06:43;;;;;;;6.40;1.00;;;;;;;16.71;48.42;99899.56;108297;1277;74908;-81
2022/09/16 11:09:19;;;;;;;5.30;1.10;;;;;;;16.84;46.42;99898.30;108190;1277;72518;-84
2022/09/16 11:12:17;;;;;;;5.80;0.90;;;;;;;17.15;46.23;99890.54;108298;1276;73130;-82
2022/09/16 11:15:19;;;;;;;3.70;0.70;;;;;;;17.30;44.64;99899.15;108262;1277;62774;-82
2022/09/16 11:17:46;;;;;;;5.00;0.80;;;;;;;17.33;43.51;99888.16;108286;1277;62582;-84
2022/09/16 11:20:41;;;;;;;6.20;1.00;;;;;;;17.40;43.34;99888.06;108310;1277;74671;-82
2022/09/16 11:23:40;;;;;;;3.30;0.70;;;;;;;17.57;42.95;99874.66;108326;1277;72573;-83
2022/09/16 11:26:29;;;;;;;4.80;0.80;;;;;;;17.69;43.42;99885.15;107848;1277;74045;-84
2022/09/16 11:29:08;;;;;;;5.40;0.80;;;;;;;17.85;43.52;99886.91;107962;1279;60508;-82
2022/09/16 11:32:06;;;;;;;5.50;1.00;;;;;;;17.95;43.31;99874.08;108123;1277;61555;-83
2022/09/16 11:34:36;;;;;;;3.80;1.00;;;;;;;18.11;43.20;99867.27;108307;1276;77973;-82
2022/09/16 11:37:28;;;;;;;6.50;0.80;;;;;;;18.13;42.71;99870.40;108314;1277;72104;-83
2022/09/16 11:40:10;;;;;;;4.90;0.90;;;;;;;18.39;42.67;99867.39;108085;1279;72729;-82
2022/09/16 11:43:00;;;;;;;3.80;0.90;;;;;;;18.32;42.31;99863.59;108203;1277;60321;-83
2022/09/16 11:45:42;;;;;;;5.00;0.90;;;;;;;18.31;42.23;99866.98;108274;1277;61073;-83
2022/09/16 11:48:47;;;;;;;4.70;1.00;;;;;;;18.66;41.52;99856.76;108283;1276;74594;-82
2022/09/16 11:51:24;;;;;;;4.90;0.80;;;;;;;19.03;41.21;99871.86;108319;1277;72148;-83
2022/09/16 11:54:11;;;;;;;6.60;1.00;;;;;;;19.29;41.03;99863.13;108278;1277;73180;-81
2022/09/16 11:56:52;;;;;;;2.50;0.70;;;;;;;19.70;40.61;99857.50;108302;1277;60392;-82
2022/09/16 11:59:38;;;;;;;4.40;0.90;;;;;;;19.95;40.61;99843.23;108098;1277;60848;-82